createdAt,value
2023-09-12T00:02:18.487Z,10.35
2023-09-12T00:05:04.043Z,10.65
2023-09-12T00:07:53.526Z,11.32
2023-09-12T00:10:39.002Z,11.55
2023-09-12T00:13:24.459Z,8.35
2023-09-12T00:16:09.992Z,12.32
2023-09-12T00:18:55.196Z,9.75
2023-09-12T00:21:40.522Z,10.38
2023-09-12T00:24:25.939Z,9.95
2023-09-12T00:27:11.687Z,8.13
2023-09-12T00:29:57.672Z,8.65
2023-09-12T00:32:43.241Z,9.40
2023-09-12T00:35:28.314Z,11.50
2023-09-12T00:38:13.799Z,11.10
2023-09-12T00:40:59.417Z,9.75
2023-09-12T00:43:44.879Z,10.50
2023-09-12T00:46:30.799Z,8.85
2023-09-12T00:49:18.294Z,10.65
2023-09-12T00:52:04.116Z,10.65
2023-09-12T00:54:49.599Z,11.93
2023-09-12T00:57:35.865Z,12.60
2023-09-12T01:00:21.660Z,9.68
2023-09-12T01:03:07.761Z,10.63
2023-09-12T01:05:53.516Z,13.68
2023-09-12T01:08:38.790Z,9.32
2023-09-12T01:11:25.058Z,12.77
2023-09-12T01:14:10.481Z,9.13
2023-09-12T01:16:56.976Z,11.18
2023-09-12T01:19:43.049Z,12.13
2023-09-12T01:23:06.037Z,9.13
2023-09-12T01:26:00.751Z,13.98
2023-09-12T01:28:46.521Z,9.85
2023-09-12T01:31:33.004Z,10.27
2023-09-12T01:34:18.891Z,9.27
2023-09-12T01:37:04.425Z,12.52
2023-09-12T01:39:49.923Z,9.52
2023-09-12T01:42:41.733Z,12.82
2023-09-12T01:45:28.215Z,12.50
2023-09-12T01:48:15.116Z,8.45
2023-09-12T01:51:03.105Z,9.38
2023-09-12T01:53:50.700Z,12.02
2023-09-12T01:56:36.683Z,13.70
2023-09-12T01:59:22.073Z,10.45
2023-09-12T02:02:07.313Z,11.93
2023-09-12T02:05:16.038Z,10.82
2023-09-12T02:08:01.477Z,9.02
2023-09-12T02:10:47.218Z,9.38
2023-09-12T02:13:32.765Z,12.35
2023-09-12T02:16:18.284Z,10.20
2023-09-12T02:19:03.894Z,9.73
2023-09-12T02:21:49.203Z,9.32
2023-09-12T02:24:37.829Z,11.23
2023-09-12T02:27:23.222Z,12.02
2023-09-12T02:30:09.062Z,12.20
2023-09-12T02:32:54.287Z,13.30
2023-09-12T02:35:39.996Z,10.45
2023-09-12T02:38:25.599Z,12.30
2023-09-12T02:41:11.182Z,12.75
2023-09-12T02:43:56.594Z,12.27
2023-09-12T02:46:42.097Z,9.30
2023-09-12T02:49:27.657Z,12.80
2023-09-12T02:52:13.048Z,13.35
2023-09-12T02:54:58.611Z,9.02
2023-09-12T02:57:44.046Z,10.25
2023-09-12T03:00:29.490Z,10.63
2023-09-12T03:03:15.342Z,12.60
2023-09-12T03:06:02.152Z,9.60
2023-09-12T03:12:59.923Z,11.25
2023-09-12T03:16:00.242Z,9.90
2023-09-12T03:18:46.277Z,13.45
2023-09-12T03:21:31.913Z,9.40
2023-09-12T03:24:17.319Z,9.20
2023-09-12T03:27:03.138Z,9.13
2023-09-12T03:29:49.068Z,12.25
2023-09-12T03:32:34.257Z,15.18
2023-09-12T03:35:19.846Z,13.55
2023-09-12T03:38:05.305Z,11.02
2023-09-12T03:40:50.857Z,14.88
2023-09-12T03:43:36.288Z,11.63
2023-09-12T03:46:22.955Z,11.25
2023-09-12T03:49:08.129Z,14.00
2023-09-12T03:51:53.747Z,11.07
2023-09-12T03:54:39.460Z,10.40
2023-09-12T03:57:24.637Z,11.75
2023-09-12T04:00:10.603Z,10.27
2023-09-12T04:03:07.304Z,13.80
2023-09-12T04:05:52.751Z,13.35
2023-09-12T04:08:38.280Z,9.32
2023-09-12T04:11:35.369Z,10.45
2023-09-12T04:14:29.511Z,11.15
2023-09-12T04:17:14.974Z,9.10
2023-09-12T04:20:00.586Z,11.70
2023-09-12T04:22:45.867Z,13.48
2023-09-12T04:25:32.062Z,11.20
2023-09-12T04:28:17.338Z,10.85
2023-09-12T04:31:03.963Z,12.52
2023-09-12T04:33:54.936Z,13.20
2023-09-12T04:36:40.270Z,10.45
2023-09-12T04:39:25.949Z,11.70
2023-09-12T04:42:11.864Z,9.68
2023-09-12T04:44:57.169Z,11.15
2023-09-12T04:47:42.421Z,10.30
2023-09-12T04:50:27.783Z,11.45
2023-09-12T04:53:13.512Z,10.77
2023-09-12T04:55:58.853Z,9.15
2023-09-12T04:58:44.852Z,9.25
2023-09-12T05:01:30.108Z,10.60
2023-09-12T05:04:15.796Z,11.80
2023-09-12T05:07:01.300Z,14.20
2023-09-12T05:09:47.541Z,9.73
2023-09-12T05:12:32.979Z,10.48
2023-09-12T05:15:18.592Z,10.68
2023-09-12T05:18:04.466Z,9.82
2023-09-12T05:20:50.390Z,11.88
2023-09-12T05:23:35.904Z,9.77
2023-09-12T05:26:21.719Z,19.27
2023-09-12T05:29:07.223Z,22.02
2023-09-12T05:31:53.029Z,20.40
2023-09-12T05:34:38.513Z,37.00
2023-09-12T05:37:24.132Z,27.20
2023-09-12T05:40:10.031Z,28.90
2023-09-12T05:42:55.695Z,16.98
2023-09-12T05:45:41.189Z,15.75
2023-09-12T05:48:26.685Z,14.00
2023-09-12T05:51:12.026Z,14.85
2023-09-12T05:53:57.785Z,7.90
2023-09-12T05:56:43.344Z,12.15
2023-09-12T05:59:28.698Z,12.23
2023-09-12T06:02:14.161Z,12.27
2023-09-12T06:04:59.807Z,12.15
2023-09-12T06:07:45.364Z,10.90
2023-09-12T06:10:30.686Z,9.68
2023-09-12T06:13:16.141Z,9.93
2023-09-12T06:16:01.643Z,9.13
2023-09-12T06:18:47.248Z,11.60
2023-09-12T06:21:32.491Z,9.10
2023-09-12T06:24:21.437Z,10.60
2023-09-12T06:27:06.881Z,15.38
2023-09-12T06:29:52.402Z,12.20
2023-09-12T06:32:38.033Z,13.10
2023-09-12T06:35:23.531Z,13.20
2023-09-12T06:38:09.237Z,9.57
2023-09-12T06:40:54.680Z,14.93
2023-09-12T06:43:40.322Z,12.13
2023-09-12T06:46:25.983Z,13.77
2023-09-12T06:49:11.714Z,16.42
2023-09-12T06:51:56.946Z,52.35
2023-09-12T06:54:42.920Z,16.95
2023-09-12T06:57:28.233Z,10.65
2023-09-12T07:00:14.680Z,11.82
2023-09-12T07:03:00.366Z,14.27
2023-09-12T07:05:45.587Z,10.40
2023-09-12T07:08:32.009Z,12.63
2023-09-12T07:11:17.409Z,11.75
2023-09-12T07:14:02.959Z,11.02
2023-09-12T07:16:48.640Z,15.15
2023-09-12T07:19:34.301Z,13.70
2023-09-12T07:22:19.642Z,14.30
2023-09-12T07:25:05.731Z,10.93
2023-09-12T07:27:53.842Z,13.10
2023-09-12T07:30:39.085Z,10.55
2023-09-12T07:33:24.528Z,10.63
2023-09-12T07:36:09.774Z,9.23
2023-09-12T07:38:55.571Z,8.77
2023-09-12T07:41:40.831Z,9.77
2023-09-12T07:44:26.215Z,10.32
2023-09-12T07:47:11.579Z,8.70
2023-09-12T07:49:57.551Z,9.63
2023-09-12T07:52:42.751Z,9.35
2023-09-12T07:55:28.381Z,10.38
2023-09-12T07:58:15.401Z,11.32
2023-09-12T08:01:05.273Z,12.35
2023-09-12T08:03:51.191Z,13.68
2023-09-12T08:06:51.442Z,8.68
2023-09-12T08:09:50.174Z,11.43
2023-09-12T08:12:37.418Z,11.65
2023-09-12T08:15:22.739Z,12.27
2023-09-12T08:18:08.330Z,14.43
2023-09-12T08:20:53.541Z,13.00
2023-09-12T08:23:38.744Z,8.65
2023-09-12T08:26:24.204Z,11.60
2023-09-12T08:29:09.743Z,11.20
2023-09-12T08:31:55.314Z,10.55
2023-09-12T08:34:40.792Z,11.27
2023-09-12T08:37:25.734Z,14.73
2023-09-12T08:40:12.453Z,11.02
2023-09-12T08:42:58.988Z,10.60
2023-09-12T08:45:45.293Z,11.07
2023-09-12T08:48:31.461Z,12.80
2023-09-12T08:51:16.855Z,11.57
2023-09-12T08:54:03.729Z,11.15
2023-09-12T08:56:50.309Z,10.07
2023-09-12T08:59:36.190Z,11.90
2023-09-12T09:02:22.571Z,8.93
2023-09-12T09:05:09.452Z,7.28
2023-09-12T09:07:56.052Z,11.88
2023-09-12T09:10:55.772Z,11.75
2023-09-12T09:13:41.174Z,10.77
2023-09-12T09:16:26.473Z,10.25
2023-09-12T09:19:12.084Z,11.30
2023-09-12T09:22:06.606Z,11.23
2023-09-12T09:25:10.875Z,10.82
2023-09-12T09:27:56.188Z,10.55
2023-09-12T09:30:43.685Z,9.73
2023-09-12T09:33:35.896Z,9.65
2023-09-12T09:36:21.771Z,9.85
2023-09-12T09:39:07.248Z,12.65
2023-09-12T09:41:54.604Z,10.75
2023-09-12T09:44:40.177Z,13.48
2023-09-12T09:47:25.324Z,12.93
2023-09-12T09:50:15.136Z,9.18
2023-09-12T09:53:00.227Z,11.75
2023-09-12T09:55:45.792Z,14.63
2023-09-12T09:58:31.658Z,10.00
2023-09-12T10:01:22.526Z,12.50
2023-09-12T10:04:09.776Z,10.13
2023-09-12T10:07:06.540Z,12.52
2023-09-12T10:09:54.922Z,11.68
2023-09-12T10:12:50.498Z,11.80
2023-09-12T10:15:39.327Z,10.38
2023-09-12T10:18:37.878Z,9.55
2023-09-12T10:21:32.788Z,14.65
2023-09-12T10:24:21.604Z,13.35
2023-09-12T10:27:07.355Z,12.10
2023-09-12T10:29:55.504Z,12.52
2023-09-12T10:32:50.986Z,11.05
2023-09-12T10:35:39.775Z,12.77
2023-09-12T10:38:30.900Z,11.23
2023-09-12T10:41:26.293Z,10.27
2023-09-12T10:44:21.656Z,12.25
2023-09-12T10:47:09.346Z,15.10
2023-09-12T10:49:55.557Z,15.07
2023-09-12T10:52:48.778Z,13.32
2023-09-12T10:55:36.304Z,10.48
2023-09-12T10:58:22.423Z,14.32
2023-09-12T11:01:27.570Z,12.38
2023-09-12T11:04:20.186Z,15.18
2023-09-12T11:07:37.546Z,11.25
2023-09-12T11:10:23.812Z,9.82
2023-09-12T11:13:18.862Z,11.27
2023-09-12T11:16:12.114Z,10.98
2023-09-12T11:19:21.330Z,9.45
2023-09-12T11:22:28.618Z,11.15
2023-09-12T11:25:24.257Z,15.68
2023-09-12T11:28:09.844Z,12.50
2023-09-12T11:30:58.960Z,9.80
2023-09-12T11:33:44.953Z,15.05
2023-09-12T11:36:30.664Z,10.88
2023-09-12T11:39:26.832Z,15.68
2023-09-12T11:42:12.691Z,10.65
2023-09-12T11:44:59.550Z,13.82
2023-09-12T11:47:46.468Z,11.88
2023-09-12T11:50:33.785Z,13.50
2023-09-12T11:53:21.906Z,14.52
2023-09-12T11:56:07.772Z,8.07
2023-09-12T11:58:54.762Z,10.68
2023-09-12T12:01:40.465Z,12.63
2023-09-12T12:04:26.706Z,11.10
2023-09-12T12:07:12.576Z,11.55
2023-09-12T12:09:58.130Z,11.93
2023-09-12T12:12:45.591Z,14.18
2023-09-12T12:15:31.177Z,11.10
2023-09-12T12:18:17.349Z,12.18
2023-09-12T12:21:03.064Z,9.82
2023-09-12T12:23:58.620Z,11.48
2023-09-12T12:26:45.038Z,10.95
2023-09-12T12:29:31.440Z,10.80
2023-09-12T12:32:17.552Z,9.20
2023-09-12T12:35:10.669Z,7.30
2023-09-12T12:38:08.887Z,11.95
2023-09-12T12:40:54.555Z,11.68
2023-09-12T12:43:43.869Z,9.50
2023-09-12T12:46:29.389Z,8.15
2023-09-12T12:49:16.885Z,11.57
2023-09-12T12:52:03.946Z,8.52
2023-09-12T12:54:49.430Z,9.38
2023-09-12T12:57:40.251Z,9.73
2023-09-12T13:00:25.803Z,10.68
2023-09-12T13:03:10.890Z,11.45
2023-09-12T13:05:56.483Z,10.98
2023-09-12T13:08:43.080Z,11.07
2023-09-12T13:11:28.274Z,10.30
2023-09-12T13:14:13.681Z,11.65
2023-09-12T13:17:00.134Z,11.98
2023-09-12T13:19:45.637Z,8.38
2023-09-12T13:22:30.845Z,13.50
2023-09-12T13:25:16.336Z,9.90
2023-09-12T13:28:02.175Z,11.55
2023-09-12T13:30:47.743Z,10.05
2023-09-12T13:33:33.450Z,12.07
2023-09-12T13:36:18.978Z,9.43
2023-09-12T13:39:04.947Z,12.35
2023-09-12T13:41:50.424Z,10.38
2023-09-12T13:44:35.932Z,9.45
2023-09-12T13:47:21.576Z,9.77
2023-09-12T13:50:07.519Z,9.48
2023-09-12T13:52:55.457Z,12.25
2023-09-12T13:56:12.852Z,11.73
2023-09-12T13:58:48.116Z,10.77
2023-09-12T14:01:38.634Z,10.05
2023-09-12T14:04:23.845Z,11.98
2023-09-12T14:07:10.047Z,9.65
2023-09-12T14:09:55.708Z,10.35
2023-09-12T14:12:41.651Z,11.25
2023-09-12T14:15:26.898Z,9.18
2023-09-12T14:18:13.558Z,13.15
2023-09-12T14:20:59.267Z,11.57
2023-09-12T14:23:45.252Z,9.98
2023-09-12T14:26:30.819Z,13.82
2023-09-12T14:29:17.618Z,13.20
2023-09-12T14:32:03.085Z,10.65
2023-09-12T14:34:48.237Z,10.02
2023-09-12T14:37:33.931Z,8.68
2023-09-12T14:40:19.217Z,8.30
2023-09-12T14:43:04.905Z,11.65
2023-09-12T14:45:50.591Z,11.43
2023-09-12T14:48:36.044Z,10.15
2023-09-12T14:51:30.959Z,10.35
2023-09-12T14:54:19.191Z,10.75
2023-09-12T14:57:04.593Z,10.60
2023-09-12T14:59:50.901Z,12.52
2023-09-12T15:02:36.217Z,13.18
2023-09-12T15:05:21.557Z,14.35
2023-09-12T15:08:07.112Z,12.52
2023-09-12T15:10:52.731Z,13.32
2023-09-12T15:13:39.029Z,9.00
2023-09-12T15:16:28.627Z,9.63
2023-09-12T15:19:13.908Z,12.60
2023-09-12T15:21:59.414Z,13.25
2023-09-12T15:24:44.791Z,13.18
2023-09-12T15:27:30.327Z,9.45
2023-09-12T15:30:16.071Z,11.43
2023-09-12T15:33:01.900Z,8.73
2023-09-12T15:35:47.493Z,7.95
2023-09-12T15:38:32.865Z,10.80
2023-09-12T15:41:18.471Z,12.05
2023-09-12T15:44:14.543Z,10.48
2023-09-12T15:47:15.612Z,8.93
2023-09-12T15:50:06.485Z,8.30
2023-09-12T15:52:53.578Z,12.70
2023-09-12T15:55:39.028Z,11.00
2023-09-12T15:58:24.440Z,10.82
2023-09-12T16:01:10.109Z,9.63
2023-09-12T16:03:55.976Z,9.25
2023-09-12T16:06:42.136Z,6.95
2023-09-12T16:09:27.359Z,12.40
2023-09-12T16:12:12.975Z,10.23
2023-09-12T16:14:58.239Z,10.10
2023-09-12T16:17:43.957Z,8.40
2023-09-12T16:20:29.340Z,9.35
2023-09-12T16:23:14.648Z,13.70
2023-09-12T16:26:01.181Z,5.82
2023-09-12T16:28:46.641Z,10.02
2023-09-12T16:31:32.235Z,10.27
2023-09-12T16:34:17.582Z,11.43
2023-09-12T16:37:03.114Z,10.23
2023-09-12T16:39:48.402Z,11.23
2023-09-12T16:42:34.947Z,10.52
2023-09-12T16:45:20.185Z,8.65
2023-09-12T16:48:05.863Z,13.10
2023-09-12T16:50:51.245Z,8.70
2023-09-12T16:53:36.846Z,36.70
2023-09-12T16:56:22.604Z,477.65
2023-09-12T16:59:07.945Z,81.22
2023-09-12T17:01:53.603Z,831.10
2023-09-12T17:04:43.651Z,588.30
2023-09-12T17:07:28.948Z,896.17
2023-09-12T17:10:14.504Z,1404.78
2023-09-12T17:13:00.086Z,1999.90
2023-09-12T17:15:45.964Z,1119.43
2023-09-12T17:18:32.362Z,247.15
2023-09-12T17:21:18.247Z,20.27
2023-09-12T17:24:04.401Z,9.52
2023-09-12T17:26:50.183Z,12.80
2023-09-12T17:29:35.894Z,9.32
2023-09-12T17:32:21.466Z,6.82
2023-09-12T17:35:07.674Z,9.30
2023-09-12T17:37:52.987Z,17.35
2023-09-12T17:40:38.889Z,23.77
2023-09-12T17:43:24.409Z,18.60
2023-09-12T17:46:11.785Z,31.90
2023-09-12T17:48:57.719Z,14.50
2023-09-12T17:51:43.085Z,7.57
2023-09-12T17:54:28.684Z,7.78
2023-09-12T17:57:14.069Z,12.18
2023-09-12T17:59:59.420Z,7.25
2023-09-12T18:02:45.061Z,13.38
2023-09-12T18:05:30.488Z,18.08
2023-09-12T18:08:15.991Z,12.40
2023-09-12T18:11:02.466Z,13.85
2023-09-12T18:13:49.251Z,10.23
2023-09-12T18:16:34.824Z,8.80
2023-09-12T18:19:21.752Z,12.48
2023-09-12T18:22:08.232Z,9.13
2023-09-12T18:24:53.639Z,8.65
2023-09-12T18:27:39.186Z,14.32
2023-09-12T18:30:24.707Z,9.10
2023-09-12T18:33:10.238Z,8.98
2023-09-12T18:35:55.808Z,8.80
2023-09-12T18:38:46.810Z,10.55
2023-09-12T18:41:32.385Z,9.23
2023-09-12T18:44:18.048Z,9.00
2023-09-12T18:47:03.903Z,10.90
2023-09-12T18:49:49.771Z,11.57
2023-09-12T18:52:52.141Z,10.30
2023-09-12T18:55:40.428Z,8.20
2023-09-12T18:58:25.794Z,7.45
2023-09-12T19:01:12.487Z,10.48
2023-09-12T19:04:32.493Z,8.82
2023-09-12T19:07:20.225Z,12.82
2023-09-12T19:10:08.863Z,8.55
2023-09-12T19:12:56.675Z,10.10
2023-09-12T19:15:42.536Z,7.47
2023-09-12T19:18:28.058Z,10.43
2023-09-12T19:21:13.291Z,9.30
2023-09-12T19:23:58.463Z,10.23
2023-09-12T19:26:44.009Z,102.30
2023-09-12T19:29:29.640Z,178.82
2023-09-12T19:32:15.028Z,291.02
2023-09-12T19:35:01.106Z,432.13
2023-09-12T19:37:46.204Z,15.80
2023-09-12T19:40:31.750Z,9.05
2023-09-12T19:43:17.307Z,9.60
2023-09-12T19:46:04.334Z,9.15
2023-09-12T19:48:50.062Z,8.13
2023-09-12T19:51:35.489Z,10.45
2023-09-12T19:54:20.965Z,8.45
2023-09-12T19:57:06.924Z,11.45
2023-09-12T19:59:52.389Z,13.68
2023-09-12T20:02:37.839Z,6.63
2023-09-12T20:05:23.183Z,6.40
2023-09-12T20:08:09.355Z,9.38
2023-09-12T20:10:54.756Z,8.23
2023-09-12T20:13:40.347Z,8.20
2023-09-12T20:16:26.045Z,11.35
2023-09-12T20:19:12.661Z,8.38
2023-09-12T20:21:57.999Z,7.32
2023-09-12T20:24:43.494Z,10.85
2023-09-12T20:27:28.671Z,10.65
2023-09-12T20:30:15.573Z,10.80
2023-09-12T20:33:02.460Z,8.07
2023-09-12T20:35:47.920Z,12.93
2023-09-12T20:38:33.499Z,8.07
2023-09-12T20:41:18.857Z,14.63
2023-09-12T20:44:04.736Z,12.85
2023-09-12T20:46:50.565Z,7.18
2023-09-12T20:49:35.590Z,8.93
2023-09-12T20:52:21.126Z,9.70
2023-09-12T20:55:07.030Z,9.48
2023-09-12T20:57:52.266Z,9.85
2023-09-12T21:00:37.793Z,10.18
2023-09-12T21:03:23.547Z,6.53
2023-09-12T21:06:08.628Z,10.32
2023-09-12T21:08:54.919Z,6.95
2023-09-12T21:11:40.188Z,7.47
2023-09-12T21:14:26.117Z,7.43
2023-09-12T21:17:11.576Z,10.65
2023-09-12T21:19:56.958Z,7.97
2023-09-12T21:22:42.109Z,9.95
2023-09-12T21:25:27.689Z,8.18
2023-09-12T21:28:15.178Z,8.25
2023-09-12T21:31:01.820Z,8.98
2023-09-12T21:33:47.353Z,8.27
2023-09-12T21:36:33.112Z,9.60
2023-09-12T21:39:18.337Z,8.20
2023-09-12T21:42:04.243Z,9.95
2023-09-12T21:44:49.405Z,8.07
2023-09-12T21:47:38.323Z,8.93
2023-09-12T21:50:23.667Z,7.93
2023-09-12T21:53:11.354Z,8.65
2023-09-12T21:55:56.618Z,8.00
2023-09-12T21:58:42.368Z,19.77
2023-09-12T22:01:27.883Z,13.70
2023-09-12T22:04:13.397Z,7.60
2023-09-12T22:06:58.828Z,8.75
2023-09-12T22:09:44.130Z,11.00
2023-09-12T22:12:29.240Z,10.20
2023-09-12T22:15:15.304Z,7.45
2023-09-12T22:18:03.191Z,7.70
2023-09-12T22:20:48.489Z,5.32
2023-09-12T22:23:34.072Z,7.70
2023-09-12T22:26:19.397Z,10.05
2023-09-12T22:29:04.876Z,9.05
2023-09-12T22:31:50.189Z,7.85
2023-09-12T22:34:35.402Z,6.85
2023-09-12T22:37:20.863Z,8.70
2023-09-12T22:40:07.514Z,7.07
2023-09-12T22:42:53.062Z,6.63
2023-09-12T22:45:38.269Z,7.47
2023-09-12T22:48:27.154Z,6.18
2023-09-12T22:51:12.499Z,5.72
2023-09-12T22:53:57.686Z,5.10
2023-09-12T22:56:43.187Z,9.00
2023-09-12T22:59:29.175Z,7.18
2023-09-12T23:02:14.594Z,6.45
2023-09-12T23:04:59.670Z,4.60
2023-09-12T23:07:44.764Z,6.85
2023-09-12T23:10:30.661Z,7.80
2023-09-12T23:13:15.870Z,8.32
2023-09-12T23:16:01.364Z,6.60
2023-09-12T23:18:47.049Z,8.75
2023-09-12T23:21:32.335Z,5.57
2023-09-12T23:24:17.622Z,5.90
2023-09-12T23:27:03.277Z,9.13
2023-09-12T23:29:49.929Z,5.50
2023-09-12T23:32:35.572Z,7.70
2023-09-12T23:35:20.886Z,7.55
2023-09-12T23:38:06.407Z,6.75
2023-09-12T23:40:51.862Z,7.22
2023-09-12T23:43:37.566Z,7.00
2023-09-12T23:46:22.817Z,7.65
2023-09-12T23:49:08.253Z,6.18
2023-09-12T23:51:53.625Z,6.45
2023-09-12T23:54:39.257Z,6.93
2023-09-12T23:57:24.591Z,4.82
